Time;durP1;ratioP1;P1;durP2;ratioP2;P2;SDS_P1;SDS_P2;PMS_P1;PMS_P2;Temp;Humidity;BMP_temperature;BMP_pressure;BME280_temperature;BME280_humidity;BME280_pressure;Samples;Min_cycle;Max_cycle;Signal;HPM_P1;HPM_P2
2023/07/17 00:01:33;;;;;;;7.47;1.45;;;17.30;99.90;;;;;;5097639;28;20048;-71
2023/07/17 00:03:58;;;;;;;4.77;1.40;;;17.30;99.90;;;;;;5114807;28;20043;-72
2023/07/17 00:06:24;;;;;;;5.93;1.80;;;17.30;99.90;;;;;;5115682;27;20415;-70
2023/07/17 00:08:50;;;;;;;4.87;1.30;;;17.30;99.90;;;;;;5115965;28;20130;-70
2023/07/17 00:11:16;;;;;;;4.07;1.23;;;17.30;99.90;;;;;;5114457;28;20517;-72
2023/07/17 00:13:41;;;;;;;4.90;1.40;;;17.30;99.90;;;;;;5098423;28;20058;-71
2023/07/17 00:16:07;;;;;;;6.03;1.50;;;17.30;99.90;;;;;;5115687;28;20066;-70
2023/07/17 00:18:34;;;;;;;4.38;1.35;;;17.30;99.90;;;;;;5115524;28;20480;-71
2023/07/17 00:21:00;;;;;;;;;;;17.30;99.90;;;;;;5098179;28;20048;-71
2023/07/17 00:23:26;;;;;;;3.85;1.33;;;17.30;99.90;;;;;;5115556;28;19985;-70
2023/07/17 00:25:52;;;;;;;5.47;1.30;;;17.30;99.90;;;;;;5115736;28;20043;-71
2023/07/17 00:28:18;;;;;;;7.32;1.70;;;17.30;99.90;;;;;;5081181;28;20051;-71
2023/07/17 00:30:44;;;;;;;6.35;1.50;;;17.30;99.90;;;;;;5115579;28;20048;-71
2023/07/17 00:33:09;;;;;;;5.27;1.63;;;17.30;99.90;;;;;;5114921;28;20035;-71
2023/07/17 00:35:35;;;;;;;4.73;1.40;;;17.30;99.90;;;;;;5114588;28;20171;-70
2023/07/17 00:38:02;;;;;;;5.87;1.30;;;17.30;99.90;;;;;;5114448;28;20337;-71
2023/07/17 00:40:27;;;;;;;3.95;1.38;;;17.20;99.90;;;;;;5115238;27;20054;-69
2023/07/17 00:43:01;;;;;;;6.25;1.50;;;17.20;99.90;;;;;;5115050;28;20040;-70
2023/07/17 00:45:33;;;;;;;4.90;1.30;;;17.20;99.90;;;;;;5115550;27;20089;-70
2023/07/17 00:47:59;;;;;;;5.05;1.33;;;17.20;99.90;;;;;;5136345;27;20051;-68
2023/07/17 00:50:26;;;;;;;5.47;1.23;;;17.20;99.90;;;;;;5151546;27;20051;-69
2023/07/17 00:52:52;;;;;;;4.47;1.27;;;17.10;99.90;;;;;;5134430;27;20490;-71
2023/07/17 00:55:19;;;;;;;8.13;1.35;;;17.10;99.90;;;;;;5118029;27;20199;-71
2023/07/17 00:57:46;;;;;;;8.13;1.13;;;17.10;99.90;;;;;;5134982;27;20047;-72
2023/07/17 01:00:13;;;;;;;8.35;1.25;;;17.10;99.90;;;;;;5151384;27;20491;-70
2023/07/17 01:02:41;;;;;;;5.55;1.10;;;17.00;99.90;;;;;;5117242;27;20053;-70
2023/07/17 01:05:08;;;;;;;4.60;0.70;;;16.90;99.90;;;;;;5135687;27;20131;-69
2023/07/17 01:07:34;;;;;;;;;;;16.90;99.90;;;;;;5117244;27;20039;-69
2023/07/17 01:10:00;;;;;;;8.33;1.10;;;16.90;99.90;;;;;;5135108;27;19919;-69
2023/07/17 01:12:27;;;;;;;5.37;0.80;;;16.80;99.90;;;;;;5116886;27;20090;-69
2023/07/17 01:14:53;;;;;;;10.55;1.08;;;16.80;99.90;;;;;;5134896;27;20050;-70
2023/07/17 01:17:18;;;;;;;4.22;0.93;;;16.70;99.90;;;;;;5100161;27;20039;-70
2023/07/17 01:19:44;;;;;;;5.87;0.90;;;16.70;99.90;;;;;;5135084;27;20066;-69
2023/07/17 01:22:29;;;;;;;3.80;0.93;;;16.70;99.90;;;;;;5083626;27;20471;-70
2023/07/17 01:24:55;;;;;;;5.70;0.85;;;16.70;99.90;;;;;;5116535;27;20050;-70
2023/07/17 01:27:21;;;;;;;5.85;1.08;;;16.60;99.90;;;;;;5099586;27;20375;-70
2023/07/17 01:29:47;;;;;;;3.75;0.75;;;16.60;99.90;;;;;;5116384;27;20054;-70
2023/07/17 01:32:13;;;;;;;7.40;0.90;;;16.50;99.90;;;;;;5135304;27;20047;-70
2023/07/17 01:34:41;;;;;;;8.63;1.10;;;16.50;99.90;;;;;;5134844;27;20050;-69
2023/07/17 01:37:10;;;;;;;6.85;1.00;;;16.50;99.90;;;;;;5117331;27;20047;-70
2023/07/17 01:39:36;;;;;;;6.10;1.00;;;16.40;99.90;;;;;;5134648;27;20209;-70
2023/07/17 01:42:02;;;;;;;5.20;0.85;;;16.40;99.90;;;;;;5134662;27;20115;-69
2023/07/17 01:44:28;;;;;;;4.90;0.88;;;16.30;99.90;;;;;;5134689;27;20039;-70
2023/07/17 01:46:55;;;;;;;3.90;1.00;;;16.30;99.90;;;;;;5116048;27;20051;-70
2023/07/17 01:49:20;;;;;;;5.88;1.20;;;16.30;99.90;;;;;;5116489;27;20178;-70
2023/07/17 01:51:46;;;;;;;7.07;1.00;;;16.20;99.90;;;;;;5117256;28;20462;-72
2023/07/17 01:54:12;;;;;;;4.75;1.02;;;16.20;99.90;;;;;;5134578;27;20131;-71
2023/07/17 01:56:38;;;;;;;6.85;1.20;;;16.20;99.90;;;;;;5117263;28;20172;-70
2023/07/17 01:59:03;;;;;;;4.23;0.83;;;16.10;99.90;;;;;;5134574;27;20042;-71
2023/07/17 02:01:29;;;;;;;5.30;1.10;;;16.10;99.90;;;;;;5116113;28;20432;-70
2023/07/17 02:03:55;;;;;;;5.13;1.00;;;16.10;99.90;;;;;;5118119;28;20096;-70
2023/07/17 02:06:22;;;;;;;7.78;1.35;;;16.10;99.90;;;;;;5134483;28;20055;-71
2023/07/17 02:08:47;;;;;;;;;;;16.10;99.90;;;;;;5135003;27;20043;-71
2023/07/17 02:11:13;;;;;;;5.60;1.00;;;16.10;99.90;;;;;;5137947;27;20386;-70
2023/07/17 02:13:39;;;;;;;5.10;0.93;;;16.00;99.90;;;;;;5120368;27;20509;-70
2023/07/17 02:16:05;;;;;;;7.80;1.05;;;16.00;99.90;;;;;;5138911;27;20099;-71
2023/07/17 02:18:31;;;;;;;7.13;1.20;;;16.00;99.90;;;;;;5120242;27;20118;-70
2023/07/17 02:20:56;;;;;;;5.18;1.13;;;15.90;99.90;;;;;;5120344;27;20134;-71
2023/07/17 02:23:22;;;;;;;7.88;1.10;;;15.90;99.90;;;;;;5138425;27;20091;-70
2023/07/17 02:25:48;;;;;;;6.43;1.00;;;15.90;99.90;;;;;;5138415;27;20530;-71
2023/07/17 02:28:15;;;;;;;8.82;1.05;;;15.80;99.90;;;;;;5138555;27;20115;-71
2023/07/17 02:30:41;;;;;;;5.57;1.05;;;15.80;99.90;;;;;;5138371;27;20054;-71
2023/07/17 02:33:06;;;;;;;6.63;1.15;;;15.70;99.90;;;;;;5120107;27;20050;-71
2023/07/17 02:35:32;;;;;;;5.93;1.10;;;15.70;99.90;;;;;;5138194;27;20061;-69
2023/07/17 02:37:58;;;;;;;6.47;1.47;;;15.60;99.90;;;;;;5119965;27;20046;-71
2023/07/17 02:40:24;;;;;;;5.05;1.33;;;15.60;99.90;;;;;;5138091;27;20531;-70
2023/07/17 02:42:49;;;;;;;8.82;1.48;;;15.50;99.90;;;;;;5138040;27;20054;-70
2023/07/17 02:45:15;;;;;;;7.70;1.30;;;15.50;99.90;;;;;;5119675;27;20091;-70
2023/07/17 02:47:41;;;;;;;8.55;1.60;;;15.50;99.90;;;;;;5119533;27;20059;-71
2023/07/17 02:50:07;;;;;;;10.30;1.40;;;15.50;99.90;;;;;;5102636;27;20047;-70
2023/07/17 02:52:34;;;;;;;7.30;2.00;;;15.50;99.90;;;;;;5120064;27;20051;-70
2023/07/17 02:55:04;;;;;;;7.70;1.70;;;15.40;99.90;;;;;;5137897;27;20051;-69
2023/07/17 02:57:36;;;;;;;9.68;1.65;;;15.40;99.90;;;;;;5119968;27;20046;-70
2023/07/17 03:00:08;;;;;;;8.88;1.75;;;15.40;99.90;;;;;;5137684;27;20375;-69
2023/07/17 03:02:45;;;;;;;8.98;1.50;;;15.40;99.90;;;;;;5103673;27;20039;-70
2023/07/17 03:05:12;;;;;;;7.70;1.55;;;15.40;99.90;;;;;;5138425;27;20375;-69
2023/07/17 03:07:43;;;;;;;6.35;1.58;;;15.40;99.90;;;;;;5119735;27;20078;-70
2023/07/17 03:10:10;;;;;;;9.30;1.45;;;15.40;99.90;;;;;;5159956;27;20051;-70
2023/07/17 03:12:38;;;;;;;7.97;1.45;;;15.30;99.90;;;;;;5144833;27;20351;-69
2023/07/17 03:15:05;;;;;;;6.07;1.38;;;15.40;99.90;;;;;;5137530;27;20403;-71
2023/07/17 03:17:32;;;;;;;8.45;1.75;;;15.30;99.90;;;;;;5137416;27;20119;-69
2023/07/17 03:19:58;;;;;;;7.30;1.45;;;15.30;99.90;;;;;;5137451;27;20118;-71
2023/07/17 03:22:24;;;;;;;7.65;1.90;;;15.20;99.90;;;;;;5153298;27;20058;-71
2023/07/17 03:24:50;;;;;;;7.43;1.60;;;15.20;99.90;;;;;;5102340;27;20043;-70
2023/07/17 03:27:16;;;;;;;6.13;1.55;;;15.20;99.90;;;;;;5137192;27;20486;-70
2023/07/17 03:29:41;;;;;;;8.50;1.95;;;15.10;99.90;;;;;;5102001;27;20063;-70
2023/07/17 03:32:09;;;;;;;6.30;1.63;;;15.10;99.90;;;;;;5137111;27;20134;-69
2023/07/17 03:34:34;;;;;;;;;;;15.00;99.90;;;;;;5119417;27;20054;-71
2023/07/17 03:37:00;;;;;;;9.13;1.90;;;15.00;99.90;;;;;;5119119;27;19919;-70
2023/07/17 03:39:25;;;;;;;7.20;1.90;;;14.90;99.90;;;;;;5119574;27;20055;-70
2023/07/17 03:41:51;;;;;;;5.70;1.98;;;14.90;99.90;;;;;;5137776;27;20043;-70
2023/07/17 03:44:17;;;;;;;12.68;2.20;;;14.90;99.90;;;;;;5119133;27;20075;-71
2023/07/17 03:46:43;;;;;;;9.27;1.95;;;14.90;99.90;;;;;;5137059;27;20063;-69
2023/07/17 03:49:08;;;;;;;6.35;2.10;;;14.90;99.90;;;;;;5101815;27;20051;-70
2023/07/17 03:51:34;;;;;;;7.53;1.80;;;14.90;99.90;;;;;;5118655;27;20041;-68
2023/07/17 03:53:59;;;;;;;9.00;2.30;;;14.90;99.90;;;;;;5118571;27;20039;-71
2023/07/17 03:56:25;;;;;;;7.63;1.90;;;14.90;99.90;;;;;;5118583;27;20424;-69
2023/07/17 03:58:51;;;;;;;8.50;1.90;;;14.90;99.90;;;;;;5119257;27;20047;-71
2023/07/17 04:01:17;;;;;;;11.93;2.27;;;14.90;99.90;;;;;;5152814;27;20063;-71
2023/07/17 04:03:43;;;;;;;9.20;2.22;;;14.80;99.90;;;;;;5137476;27;20288;-69
2023/07/17 04:06:09;;;;;;;8.68;2.40;;;14.80;99.90;;;;;;5136687;27;20085;-70
2023/07/17 04:08:35;;;;;;;9.32;2.25;;;14.80;99.90;;;;;;5118352;27;20113;-69
2023/07/17 04:11:01;;;;;;;8.00;2.17;;;14.80;99.90;;;;;;5136473;27;20043;-69
2023/07/17 04:13:26;;;;;;;11.38;2.30;;;14.90;99.90;;;;;;5136951;27;20050;-70
2023/07/17 04:15:53;;;;;;;8.13;1.95;;;14.90;99.90;;;;;;5118613;27;20046;-71
2023/07/17 04:18:19;;;;;;;6.45;2.03;;;14.90;99.90;;;;;;5151280;27;20035;-71
2023/07/17 04:20:44;;;;;;;8.43;2.10;;;14.90;99.90;;;;;;5127621;27;20069;-70
2023/07/17 04:23:12;;;;;;;7.25;2.15;;;14.90;99.90;;;;;;5136697;27;20051;-70
2023/07/17 04:25:41;;;;;;;10.93;2.13;;;15.00;99.90;;;;;;5136310;27;20057;-69
2023/07/17 04:28:07;;;;;;;7.60;2.30;;;15.00;99.90;;;;;;5118958;27;20082;-69
2023/07/17 04:30:36;;;;;;;8.20;2.30;;;15.00;99.90;;;;;;5118780;27;20082;-70
2023/07/17 04:33:02;;;;;;;8.25;2.50;;;15.10;99.90;;;;;;5135579;27;20047;-69
2023/07/17 04:35:28;;;;;;;6.82;2.22;;;15.10;99.90;;;;;;5117981;27;20136;-70
2023/07/17 04:37:56;;;;;;;8.48;2.17;;;15.10;99.90;;;;;;5135524;27;20039;-70
2023/07/17 04:40:22;;;;;;;6.60;2.20;;;15.10;99.90;;;;;;5117533;27;20043;-71
2023/07/17 04:42:48;;;;;;;7.82;2.00;;;15.20;99.90;;;;;;5118346;27;20065;-70
2023/07/17 04:45:15;;;;;;;9.88;2.20;;;15.20;99.90;;;;;;5118359;27;20100;-70
2023/07/17 04:47:41;;;;;;;7.55;2.30;;;15.20;99.90;;;;;;5083407;27;20142;-71
2023/07/17 04:50:07;;;;;;;9.20;2.40;;;15.30;99.90;;;;;;5117421;27;20118;-70
2023/07/17 04:52:33;;;;;;;8.82;2.40;;;15.30;99.90;;;;;;5135545;27;20098;-69
2023/07/17 04:54:59;;;;;;;10.10;2.55;;;15.30;99.90;;;;;;5135541;27;20047;-70
2023/07/17 04:57:24;;;;;;;7.63;2.33;;;15.30;99.90;;;;;;5135522;27;20047;-69
2023/07/17 04:59:50;;;;;;;7.63;2.35;;;15.40;99.90;;;;;;5135582;27;20360;-70
2023/07/17 05:02:16;;;;;;;5.75;1.92;;;15.40;99.90;;;;;;5135488;27;20046;-69
2023/07/17 05:04:42;;;;;;;8.63;2.13;;;15.40;99.90;;;;;;5117381;27;20035;-69
2023/07/17 05:07:08;;;;;;;12.07;2.53;;;15.40;99.90;;;;;;5117286;27;20050;-70
2023/07/17 05:09:33;;;;;;;9.60;2.60;;;15.50;99.90;;;;;;5100080;27;20035;-69
2023/07/17 05:11:59;;;;;;;9.90;2.22;;;15.50;99.90;;;;;;5135683;27;20078;-69
2023/07/17 05:14:25;;;;;;;9.48;1.98;;;15.50;99.90;;;;;;5135159;27;20047;-70
2023/07/17 05:16:50;;;;;;;9.05;2.40;;;15.60;99.90;;;;;;5117121;27;20390;-69
2023/07/17 05:19:17;;;;;;;8.38;2.30;;;15.60;99.90;;;;;;5116913;27;20079;-70
2023/07/17 05:21:43;;;;;;;10.13;2.10;;;15.70;99.90;;;;;;5117280;27;20058;-69
2023/07/17 05:24:09;;;;;;;7.85;2.08;;;15.80;99.90;;;;;;5139810;27;20047;-70
2023/07/17 05:26:34;;;;;;;7.22;2.03;;;15.80;99.90;;;;;;5127863;27;20042;-70
2023/07/17 05:29:01;;;;;;;10.07;2.33;;;15.90;99.90;;;;;;5120316;27;20086;-69
2023/07/17 05:31:27;;;;;;;8.68;2.20;;;16.00;99.90;;;;;;5116570;27;20390;-68
2023/07/17 05:33:53;;;;;;;7.25;1.92;;;16.00;99.90;;;;;;5116567;27;20054;-69
2023/07/17 05:36:19;;;;;;;7.43;2.22;;;16.00;99.90;;;;;;5117350;27;20435;-70
2023/07/17 05:38:45;;;;;;;9.93;2.13;;;16.00;99.90;;;;;;5135171;27;20045;-68
2023/07/17 05:41:10;;;;;;;11.02;2.40;;;16.10;99.90;;;;;;5135357;27;20043;-69
2023/07/17 05:43:36;;;;;;;9.93;2.17;;;16.10;99.90;;;;;;5134591;27;20054;-70
2023/07/17 05:46:02;;;;;;;7.97;2.13;;;16.10;99.90;;;;;;5115653;27;20059;-69
2023/07/17 05:48:27;;;;;;;9.50;2.35;;;16.20;99.90;;;;;;5099280;27;20049;-70
2023/07/17 05:50:53;;;;;;;8.23;2.55;;;16.20;99.90;;;;;;5099549;27;20039;-69
2023/07/17 05:53:19;;;;;;;11.70;2.90;;;16.20;99.90;;;;;;5116755;27;20039;-69
2023/07/17 05:55:46;;;;;;;14.23;2.38;;;16.30;99.90;;;;;;5099500;27;20051;-69
2023/07/17 05:58:12;;;;;;;10.75;2.63;;;16.30;99.90;;;;;;5116165;28;20039;-69
2023/07/17 06:00:37;;;;;;;9.68;2.08;;;16.40;99.90;;;;;;5099794;28;20043;-69
2023/07/17 06:03:03;;;;;;;12.23;2.78;;;16.40;99.90;;;;;;5134776;28;20070;-70
2023/07/17 06:05:29;;;;;;;10.27;2.53;;;16.50;99.90;;;;;;5134465;28;20043;-70
2023/07/17 06:07:55;;;;;;;12.43;2.60;;;16.50;99.90;;;;;;5135257;28;20035;-69
2023/07/17 06:10:20;;;;;;;13.40;2.63;;;16.60;99.90;;;;;;5133590;28;20394;-69
2023/07/17 06:12:46;;;;;;;15.52;2.50;;;16.50;99.90;;;;;;5116219;28;20095;-70
2023/07/17 06:15:16;;;;;;;9.43;2.53;;;16.60;99.90;;;;;;5134126;28;20043;-67
2023/07/17 06:17:42;;;;;;;12.00;2.60;;;16.60;99.90;;;;;;5115623;28;20059;-69
2023/07/17 06:20:10;;;;;;;9.23;2.33;;;16.60;99.90;;;;;;5134067;28;20046;-70
2023/07/17 06:22:37;;;;;;;16.27;2.92;;;16.70;99.90;;;;;;5116416;28;20091;-70
2023/07/17 06:25:03;;;;;;;8.77;2.65;;;16.70;99.90;;;;;;5134430;28;20119;-69
2023/07/17 06:27:29;;;;;;;10.85;2.95;;;16.70;99.90;;;;;;5134169;28;20051;-69
2023/07/17 06:29:55;;;;;;;9.90;2.85;;;16.80;99.90;;;;;;5133935;28;20054;-68
2023/07/17 06:32:20;;;;;;;9.20;2.83;;;16.80;99.90;;;;;;5119949;28;20046;-69
2023/07/17 06:34:47;;;;;;;17.20;3.10;;;16.80;99.90;;;;;;5104721;28;20099;-69
2023/07/17 06:37:13;;;;;;;11.48;3.55;;;16.80;99.90;;;;;;5101500;28;20054;-68
2023/07/17 06:39:38;;;;;;;13.55;3.20;;;16.90;99.90;;;;;;5116085;28;20395;-68
2023/07/17 06:42:05;;;;;;;13.77;3.08;;;17.00;99.90;;;;;;5116154;28;20046;-68
2023/07/17 06:44:31;;;;;;;16.33;3.30;;;17.20;99.90;;;;;;5115970;28;20046;-71
2023/07/17 06:46:56;;;;;;;13.27;3.23;;;17.30;99.90;;;;;;5115487;28;20050;-69
2023/07/17 06:49:22;;;;;;;11.20;3.10;;;17.40;99.90;;;;;;5116055;28;20047;-72
2023/07/17 06:51:48;;;;;;;13.23;3.53;;;17.50;99.90;;;;;;5098942;28;20043;-68
2023/07/17 06:54:13;;;;;;;13.98;3.30;;;17.60;99.90;;;;;;5115868;28;20047;-68
2023/07/17 06:56:39;;;;;;;11.17;3.63;;;17.90;99.90;;;;;;5135974;27;20375;-70
2023/07/17 06:59:05;;;;;;;11.33;4.17;;;18.10;99.90;;;;;;5085887;27;20039;-69
2023/07/17 07:01:31;;;;;;;15.50;3.83;;;18.20;99.90;;;;;;5119667;27;20082;-69
2023/07/17 07:03:56;;;;;;;12.87;2.97;;;18.30;99.90;;;;;;5120305;27;20051;-70
2023/07/17 07:06:22;;;;;;;10.57;3.37;;;18.40;99.90;;;;;;5137845;27;20050;-69
2023/07/17 07:08:48;;;;;;;13.63;3.60;;;18.50;99.90;;;;;;5102643;27;20434;-70
2023/07/17 07:11:14;;;;;;;11.33;3.40;;;18.50;99.90;;;;;;5138421;27;20086;-70
2023/07/17 07:13:42;;;;;;;12.53;3.20;;;18.50;99.90;;;;;;5120023;27;20395;-70
2023/07/17 07:16:08;;;;;;;13.02;3.10;;;18.70;99.90;;;;;;5118825;27;20074;-68
2023/07/17 07:18:34;;;;;;;11.57;3.20;;;18.80;99.90;;;;;;5153623;27;20046;-69
2023/07/17 07:21:00;;;;;;;13.68;3.13;;;19.00;99.90;;;;;;5137655;27;20074;-70
2023/07/17 07:23:26;;;;;;;10.13;2.70;;;19.10;99.90;;;;;;5137482;27;20070;-69
2023/07/17 07:25:52;;;;;;;11.93;3.28;;;19.10;99.90;;;;;;5102185;27;20397;-69
2023/07/17 07:28:19;;;;;;;9.82;2.78;;;19.00;99.90;;;;;;5119215;27;20039;-70
2023/07/17 07:30:45;;;;;;;14.20;3.70;;;18.90;99.90;;;;;;5102886;27;20056;-70
2023/07/17 07:33:10;;;;;;;14.97;3.40;;;18.80;99.90;;;;;;5137374;27;20123;-69
2023/07/17 07:35:36;;;;;;;10.57;3.33;;;18.80;99.90;;;;;;5119004;27;20051;-68
2023/07/17 07:38:02;;;;;;;12.37;3.00;;;18.70;99.90;;;;;;5137212;27;20039;-69
2023/07/17 07:40:28;;;;;;;10.30;2.97;;;18.70;99.90;;;;;;5121951;27;20135;-69
2023/07/17 07:42:53;;;;;;;12.93;3.33;;;18.50;99.90;;;;;;5125469;27;20039;-69
2023/07/17 07:45:21;;;;;;;13.63;3.30;;;18.30;99.90;;;;;;5120002;27;20058;-70
2023/07/17 07:47:46;;;;;;;15.88;2.83;;;18.40;99.90;;;;;;5137431;27;20069;-69
2023/07/17 07:50:12;;;;;;;10.03;3.10;;;18.50;99.90;;;;;;5136739;27;20054;-69
2023/07/17 07:52:38;;;;;;;15.83;3.57;;;18.70;99.90;;;;;;5136800;27;20160;-68
2023/07/17 07:55:04;;;;;;;9.53;2.57;;;18.80;99.90;;;;;;5152637;27;20043;-70
2023/07/17 07:57:30;;;;;;;10.60;2.67;;;18.70;99.90;;;;;;5136645;27;20047;-69
2023/07/17 07:59:56;;;;;;;11.80;2.50;;;18.80;99.90;;;;;;5136474;27;20099;-70
2023/07/17 08:02:23;;;;;;;7.72;2.28;;;19.00;99.90;;;;;;5137127;27;20379;-69
2023/07/17 08:04:49;;;;;;;8.75;2.60;;;19.10;99.90;;;;;;5136439;27;20049;-70
2023/07/17 08:07:15;;;;;;;7.63;2.42;;;19.30;99.90;;;;;;5135851;27;20391;-68
2023/07/17 08:09:41;;;;;;;9.13;2.57;;;19.40;99.90;;;;;;5136271;27;20035;-68
2023/07/17 08:12:07;;;;;;;9.60;2.23;;;19.60;99.90;;;;;;5118117;27;20047;-69
2023/07/17 08:14:33;;;;;;;9.53;2.73;;;19.80;99.90;;;;;;5118219;27;20043;-70
2023/07/17 08:16:59;;;;;;;10.50;3.07;;;19.90;99.90;;;;;;5136194;27;20050;-68
2023/07/17 08:19:24;;;;;;;11.33;2.50;;;20.10;99.90;;;;;;5136170;27;20422;-72
2023/07/17 08:21:50;;;;;;;13.17;2.97;;;20.10;99.90;;;;;;5117857;27;20093;-70
2023/07/17 08:24:16;;;;;;;12.23;2.97;;;20.00;99.90;;;;;;5118834;27;20073;-68
2023/07/17 08:26:43;;;;;;;9.47;2.90;;;20.00;99.90;;;;;;5100981;27;20047;-69
2023/07/17 08:29:10;;;;;;;12.65;2.70;;;20.10;99.90;;;;;;5118730;27;20096;-67
2023/07/17 08:31:36;;;;;;;10.73;2.80;;;20.00;99.90;;;;;;5117684;27;20047;-68
2023/07/17 08:34:05;;;;;;;15.68;3.08;;;19.90;99.90;;;;;;5135913;27;20047;-70
2023/07/17 08:36:32;;;;;;;10.85;2.63;;;19.90;99.90;;;;;;5100702;27;20047;-68
2023/07/17 08:38:58;;;;;;;9.23;2.45;;;19.70;99.90;;;;;;5117388;27;20031;-68
2023/07/17 08:41:25;;;;;;;11.35;2.63;;;19.70;99.90;;;;;;5100664;27;20051;-70
2023/07/17 08:43:51;;;;;;;9.52;2.63;;;19.70;99.90;;;;;;5135724;27;20043;-70
2023/07/17 08:46:17;;;;;;;;;;;19.70;99.90;;;;;;5135756;27;20047;-71
2023/07/17 08:48:44;;;;;;;11.30;3.10;;;19.80;99.90;;;;;;5107057;27;19903;-70
2023/07/17 08:51:13;;;;;;;9.93;2.67;;;20.10;99.90;;;;;;5123057;27;20427;-70
2023/07/17 08:53:43;;;;;;;11.23;2.70;;;20.20;99.90;;;;;;5117524;27;20103;-70
2023/07/17 08:56:13;;;;;;;10.40;3.05;;;20.20;99.90;;;;;;5136285;27;20046;-68
2023/07/17 08:58:42;;;;;;;9.57;2.97;;;20.50;99.90;;;;;;5100584;27;20046;-69
2023/07/17 09:01:08;;;;;;;7.28;2.60;;;20.70;99.90;;;;;;5135560;27;20078;-69
2023/07/17 09:03:36;;;;;;;13.43;3.23;;;20.90;99.90;;;;;;5135392;27;20539;-68
2023/07/17 09:06:03;;;;;;;9.60;2.38;;;21.00;99.90;;;;;;5117104;27;20046;-69
2023/07/17 09:08:30;;;;;;;10.70;2.70;;;21.00;99.90;;;;;;5117194;27;20041;-71
2023/07/17 09:11:03;;;;;;;13.35;2.47;;;20.90;99.90;;;;;;5135151;27;20088;-66
2023/07/17 09:13:41;;;;;;;13.07;2.58;;;20.50;99.90;;;;;;5100373;27;20051;-69
2023/07/17 09:16:20;;;;;;;9.57;2.92;;;20.20;99.90;;;;;;5117693;27;20050;-69
2023/07/17 09:18:47;;;;;;;7.63;2.35;;;20.00;99.90;;;;;;5116713;27;20039;-69
2023/07/17 09:21:14;;;;;;;11.55;2.95;;;19.80;99.90;;;;;;5099944;27;20134;-70
2023/07/17 09:23:44;;;;;;;6.68;1.95;;;19.60;99.90;;;;;;5134955;27;20057;-68
2023/07/17 09:26:13;;;;;;;8.10;2.28;;;19.60;99.90;;;;;;5135024;27;20054;-69
2023/07/17 09:28:58;;;;;;;10.85;2.28;;;19.60;99.90;;;;;;5134906;27;20123;-68
2023/07/17 09:31:31;;;;;;;10.38;2.33;;;19.60;99.90;;;;;;5134868;27;20471;-70
2023/07/17 09:33:59;;;;;;;12.70;3.35;;;19.60;99.90;;;;;;5117569;27;20459;-71
2023/07/17 09:36:25;;;;;;;10.60;2.80;;;19.50;99.90;;;;;;5116366;27;20566;-69
2023/07/17 09:38:57;;;;;;;12.27;3.03;;;19.50;99.90;;;;;;5135305;27;20375;-69
2023/07/17 09:41:24;;;;;;;11.60;3.08;;;19.60;99.90;;;;;;5116510;27;20334;-69
2023/07/17 09:44:04;;;;;;;9.25;2.92;;;19.80;99.90;;;;;;5134625;27;20039;-71
2023/07/17 09:46:34;;;;;;;10.00;2.90;;;19.90;99.90;;;;;;5113211;28;20064;-70
2023/07/17 09:49:01;;;;;;;15.52;3.00;;;20.10;99.90;;;;;;5112800;28;20046;-69
2023/07/17 09:51:28;;;;;;;11.15;2.88;;;20.20;99.90;;;;;;5114929;28;20069;-70
2023/07/17 09:53:55;;;;;;;10.00;3.13;;;20.30;99.90;;;;;;5114590;28;20043;-71
2023/07/17 09:56:21;;;;;;;13.02;2.97;;;20.40;99.90;;;;;;5080283;28;20055;-69
2023/07/17 09:58:51;;;;;;;9.73;2.63;;;20.30;99.90;;;;;;5079423;28;20407;-70
2023/07/17 10:01:23;;;;;;;10.38;2.63;;;20.60;99.90;;;;;;5112934;28;20148;-69
2023/07/17 10:03:50;;;;;;;9.52;2.53;;;20.70;99.90;;;;;;5112778;28;20039;-71
2023/07/17 10:06:18;;;;;;;13.57;2.75;;;20.60;99.90;;;;;;5112550;28;20047;-70
2023/07/17 10:08:50;;;;;;;10.57;2.50;;;20.60;99.90;;;;;;5113903;28;20040;-70
2023/07/17 10:11:19;;;;;;;9.98;2.13;;;20.50;99.90;;;;;;5112713;28;20051;-70
2023/07/17 10:13:47;;;;;;;14.85;2.40;;;20.60;99.90;;;;;;5114012;28;20055;-70
2023/07/17 10:16:16;;;;;;;10.52;2.13;;;20.60;99.90;;;;;;5112622;28;20049;-69
2023/07/17 10:18:51;;;;;;;6.80;1.90;;;20.60;99.90;;;;;;5112694;28;20040;-71
2023/07/17 10:21:17;;;;;;;8.85;2.10;;;20.60;99.90;;;;;;5113808;28;20130;-70
2023/07/17 10:23:44;;;;;;;;;;;20.60;99.90;;;;;;5114291;28;20051;-70
2023/07/17 10:26:11;;;;;;;12.85;2.40;;;20.70;99.90;;;;;;5113734;28;19942;-69
2023/07/17 10:28:38;;;;;;;6.63;1.63;;;20.80;99.90;;;;;;5112732;28;20193;-70
2023/07/17 10:31:30;;;;;;;7.07;1.63;;;20.90;99.90;;;;;;5113482;28;20048;-71
2023/07/17 10:34:04;;;;;;;5.60;2.00;;;21.10;99.90;;;;;;5091723;28;20071;-70
2023/07/17 10:36:40;;;;;;;8.43;1.80;;;21.00;99.90;;;;;;5116466;28;20135;-71
2023/07/17 10:39:07;;;;;;;6.68;1.48;;;20.80;99.90;;;;;;5118475;28;20044;-71
2023/07/17 10:41:35;;;;;;;6.43;1.38;;;20.70;99.90;;;;;;5117678;28;20097;-72
2023/07/17 10:44:03;;;;;;;6.60;1.40;;;20.80;99.90;;;;;;5117603;28;20079;-71
2023/07/17 10:46:33;;;;;;;4.65;1.52;;;20.80;99.90;;;;;;5113812;28;20160;-71
2023/07/17 10:49:06;;;;;;;7.47;1.55;;;21.00;99.90;;;;;;5117760;28;20043;-70
2023/07/17 10:51:32;;;;;;;7.93;1.30;;;21.20;99.90;;;;;;5116904;28;20101;-69
2023/07/17 10:53:58;;;;;;;6.88;1.42;;;21.40;99.90;;;;;;5116022;28;20043;-69
2023/07/17 10:56:25;;;;;;;10.83;1.60;;;21.50;99.90;;;;;;5116071;28;20043;-71
2023/07/17 10:58:51;;;;;;;7.50;1.50;;;21.60;99.90;;;;;;5117666;28;20039;-69
2023/07/17 11:01:17;;;;;;;7.38;1.67;;;21.80;99.90;;;;;;5118570;28;20043;-69
2023/07/17 11:03:47;;;;;;;6.68;1.40;;;21.80;99.90;;;;;;5118638;28;20086;-71
2023/07/17 11:06:15;;;;;;;7.35;1.55;;;21.80;99.90;;;;;;5117228;28;20054;-72
2023/07/17 11:08:51;;;;;;;9.25;1.63;;;21.50;99.90;;;;;;5117774;28;20054;-72
2023/07/17 11:11:17;;;;;;;6.43;1.48;;;21.50;99.90;;;;;;5115627;28;20539;-72
2023/07/17 11:13:47;;;;;;;8.52;1.40;;;21.50;99.90;;;;;;5116061;28;20040;-71
2023/07/17 11:16:13;;;;;;;9.90;1.50;;;21.70;99.90;;;;;;5115888;28;20048;-71
2023/07/17 11:18:48;;;;;;;8.60;1.53;;;21.80;99.90;;;;;;5098570;28;20043;-70
2023/07/17 11:21:18;;;;;;;7.63;1.60;;;21.80;99.90;;;;;;5116785;28;20073;-71
2023/07/17 11:23:56;;;;;;;5.90;1.13;;;22.00;99.90;;;;;;5115600;28;20487;-70
2023/07/17 11:26:31;;;;;;;3.67;1.50;;;21.90;99.90;;;;;;5117698;28;20426;-71
2023/07/17 11:28:58;;;;;;;8.05;1.50;;;;;;;;;;5117419;28;20046;-72
2023/07/17 11:31:24;;;;;;;;;;;;;;;;;;5117028;28;20058;-71
2023/07/17 11:33:51;;;;;;;7.45;1.30;;;;;;;;;;5116721;28;19920;-71
2023/07/17 11:36:17;;;;;;;7.65;1.27;;;;;;;;;;5081937;28;20055;-70
2023/07/17 11:38:43;;;;;;;6.00;1.20;;;;;;;;;;5116537;28;20050;-72
2023/07/17 11:41:09;;;;;;;8.25;0.93;;;22.00;99.90;;;;;;5115459;28;20079;-71
2023/07/17 11:43:35;;;;;;;7.07;1.10;;;21.90;99.90;;;;;;5114930;28;20083;-71
2023/07/17 11:46:05;;;;;;;6.45;1.05;;;21.60;99.90;;;;;;5118434;27;20485;-70
2023/07/17 11:48:32;;;;;;;5.10;1.10;;;21.50;99.90;;;;;;5136790;27;20054;-72
2023/07/17 11:51:02;;;;;;;6.32;0.85;;;21.50;99.90;;;;;;5136896;27;20092;-72
2023/07/17 11:53:27;;;;;;;4.82;1.00;;;21.50;99.90;;;;;;5118607;27;20043;-72
2023/07/17 11:55:53;;;;;;;4.30;0.80;;;21.60;99.90;;;;;;5119417;27;20093;-72
2023/07/17 11:58:25;;;;;;;6.15;0.82;;;21.60;99.90;;;;;;5136266;27;20487;-72
2023/07/17 12:00:54;;;;;;;4.75;1.00;;;21.70;99.90;;;;;;5101457;27;20051;-71
2023/07/17 12:03:20;;;;;;;4.95;0.80;;;21.80;99.90;;;;;;5118293;27;20174;-72
2023/07/17 12:05:46;;;;;;;4.82;0.82;;;21.80;99.90;;;;;;5118863;27;20058;-72
2023/07/17 12:08:12;;;;;;;10.45;1.02;;;21.70;99.90;;;;;;5137311;27;20483;-71
2023/07/17 12:10:38;;;;;;;4.78;1.08;;;21.60;99.90;;;;;;5137682;27;20046;-70
2023/07/17 12:13:05;;;;;;;10.18;1.50;;;21.30;99.90;;;;;;5135174;27;20047;-70
2023/07/17 12:15:31;;;;;;;10.38;1.52;;;20.90;99.90;;;;;;5117751;27;20046;-70
2023/07/17 12:17:57;;;;;;;6.22;1.13;;;20.40;99.90;;;;;;5136313;27;20039;-69
2023/07/17 12:20:24;;;;;;;9.68;1.38;;;19.90;99.90;;;;;;5136111;27;20055;-70
2023/07/17 12:22:52;;;;;;;4.00;0.52;;;19.20;99.90;;;;;;5117952;27;20057;-70
2023/07/17 12:25:18;;;;;;;5.88;0.65;;;18.60;99.90;;;;;;5136023;27;20047;-70
2023/07/17 12:27:46;;;;;;;4.15;0.77;;;18.10;99.90;;;;;;5118873;27;20070;-70
2023/07/17 12:30:12;;;;;;;4.32;0.95;;;17.70;99.90;;;;;;5101779;27;20043;-68
2023/07/17 12:32:38;;;;;;;4.82;0.93;;;17.60;99.90;;;;;;5117518;27;20040;-67
2023/07/17 12:35:08;;;;;;;6.73;1.23;;;17.60;99.90;;;;;;5117650;27;20046;-68
2023/07/17 12:37:34;;;;;;;6.10;1.10;;;17.60;99.90;;;;;;5117555;27;20112;-68
2023/07/17 12:40:01;;;;;;;3.95;0.90;;;17.60;99.90;;;;;;5135751;27;20035;-69
2023/07/17 12:42:26;;;;;;;6.30;1.05;;;17.70;99.90;;;;;;5117216;27;20035;-69
2023/07/17 12:44:52;;;;;;;3.00;0.80;;;17.90;99.90;;;;;;5135783;27;20119;-69
2023/07/17 12:47:18;;;;;;;2.80;0.77;;;18.20;99.90;;;;;;5135774;27;20055;-76